sensor_id;sensor_type;location;lat;lon;timestamp;temperature;humidity
23301;DHT22;11819;51.394;12.340;2022-11-23T00:01:20;5.20;91.60
23301;DHT22;11819;51.394;12.340;2022-11-23T00:03:47;5.20;91.60
23301;DHT22;11819;51.394;12.340;2022-11-23T00:06:14;5.20;91.70
23301;DHT22;11819;51.394;12.340;2022-11-23T00:08:40;5.20;91.70
23301;DHT22;11819;51.394;12.340;2022-11-23T00:11:06;5.20;91.70
23301;DHT22;11819;51.394;12.340;2022-11-23T00:13:32;5.20;91.70
23301;DHT22;11819;51.394;12.340;2022-11-23T00:16:11;5.20;91.80
23301;DHT22;11819;51.394;12.340;2022-11-23T00:18:37;5.20;91.80
23301;DHT22;11819;51.394;12.340;2022-11-23T00:21:07;5.20;91.80
23301;DHT22;11819;51.394;12.340;2022-11-23T00:23:33;5.20;91.80
23301;DHT22;11819;51.394;12.340;2022-11-23T00:25:59;5.20;91.80
23301;DHT22;11819;51.394;12.340;2022-11-23T00:28:25;5.20;91.70
23301;DHT22;11819;51.394;12.340;2022-11-23T00:30:50;5.20;91.70
23301;DHT22;11819;51.394;12.340;2022-11-23T00:33:16;5.30;91.70
23301;DHT22;11819;51.394;12.340;2022-11-23T00:35:42;5.30;91.70
23301;DHT22;11819;51.394;12.340;2022-11-23T00:38:10;5.30;91.80
23301;DHT22;11819;51.394;12.340;2022-11-23T00:40:36;5.30;91.80
23301;DHT22;11819;51.394;12.340;2022-11-23T00:43:02;5.20;91.80
23301;DHT22;11819;51.394;12.340;2022-11-23T00:45:28;5.20;92.20
23301;DHT22;11819;51.394;12.340;2022-11-23T00:47:53;5.20;91.90
23301;DHT22;11819;51.394;12.340;2022-11-23T00:50:21;5.20;92.00
23301;DHT22;11819;51.394;12.340;2022-11-23T00:52:49;5.20;92.10
23301;DHT22;11819;51.394;12.340;2022-11-23T00:55:14;5.20;92.10
23301;DHT22;11819;51.394;12.340;2022-11-23T00:57:40;5.20;92.10
23301;DHT22;11819;51.394;12.340;2022-11-23T01:00:07;5.20;92.20
23301;DHT22;11819;51.394;12.340;2022-11-23T01:02:34;5.20;92.20
23301;DHT22;11819;51.394;12.340;2022-11-23T01:05:01;5.30;92.20
23301;DHT22;11819;51.394;12.340;2022-11-23T01:07:28;5.30;92.20
23301;DHT22;11819;51.394;12.340;2022-11-23T01:09:56;5.40;92.20
23301;DHT22;11819;51.394;12.340;2022-11-23T01:12:22;5.40;92.20
23301;DHT22;11819;51.394;12.340;2022-11-23T01:14:47;5.50;92.20
23301;DHT22;11819;51.394;12.340;2022-11-23T01:17:13;5.50;92.20
23301;DHT22;11819;51.394;12.340;2022-11-23T01:19:39;5.50;92.10
23301;DHT22;11819;51.394;12.340;2022-11-23T01:22:04;5.50;92.20
23301;DHT22;11819;51.394;12.340;2022-11-23T01:24:30;5.60;92.20
23301;DHT22;11819;51.394;12.340;2022-11-23T01:26:56;5.60;92.20
23301;DHT22;11819;51.394;12.340;2022-11-23T01:29:22;5.60;92.20
23301;DHT22;11819;51.394;12.340;2022-11-23T01:31:48;5.60;92.20
23301;DHT22;11819;51.394;12.340;2022-11-23T01:34:15;5.60;92.20
23301;DHT22;11819;51.394;12.340;2022-11-23T01:36:41;5.60;92.20
23301;DHT22;11819;51.394;12.340;2022-11-23T01:39:09;5.60;92.20
23301;DHT22;11819;51.394;12.340;2022-11-23T01:41:37;5.60;92.30
23301;DHT22;11819;51.394;12.340;2022-11-23T01:44:42;5.60;92.30
23301;DHT22;11819;51.394;12.340;2022-11-23T01:47:08;5.60;92.30
23301;DHT22;11819;51.394;12.340;2022-11-23T01:49:48;5.60;92.40
23301;DHT22;11819;51.394;12.340;2022-11-23T01:52:18;5.50;92.40
23301;DHT22;11819;51.394;12.340;2022-11-23T01:54:51;5.60;92.40
23301;DHT22;11819;51.394;12.340;2022-11-23T01:57:25;5.60;92.40
23301;DHT22;11819;51.394;12.340;2022-11-23T01:59:54;5.60;92.40
23301;DHT22;11819;51.394;12.340;2022-11-23T02:02:21;5.70;92.40
23301;DHT22;11819;51.394;12.340;2022-11-23T02:04:52;5.70;92.40
23301;DHT22;11819;51.394;12.340;2022-11-23T02:07:20;5.70;92.40
23301;DHT22;11819;51.394;12.340;2022-11-23T02:09:49;5.80;92.40
23301;DHT22;11819;51.394;12.340;2022-11-23T02:12:16;5.80;92.40
23301;DHT22;11819;51.394;12.340;2022-11-23T02:14:42;5.80;92.40
23301;DHT22;11819;51.394;12.340;2022-11-23T02:17:09;5.90;92.40
23301;DHT22;11819;51.394;12.340;2022-11-23T02:22:09;5.90;92.30
23301;DHT22;11819;51.394;12.340;2022-11-23T02:24:42;5.90;92.60
23301;DHT22;11819;51.394;12.340;2022-11-23T02:27:09;5.90;92.30
23301;DHT22;11819;51.394;12.340;2022-11-23T02:29:36;5.90;92.30
23301;DHT22;11819;51.394;12.340;2022-11-23T02:32:02;5.90;92.30
23301;DHT22;11819;51.394;12.340;2022-11-23T02:34:27;5.90;92.30
23301;DHT22;11819;51.394;12.340;2022-11-23T02:36:55;5.80;92.30
23301;DHT22;11819;51.394;12.340;2022-11-23T02:39:37;5.80;92.30
23301;DHT22;11819;51.394;12.340;2022-11-23T02:42:04;5.80;92.80
23301;DHT22;11819;51.394;12.340;2022-11-23T02:47:02;5.80;92.40
23301;DHT22;11819;51.394;12.340;2022-11-23T02:49:31;5.80;92.40
23301;DHT22;11819;51.394;12.340;2022-11-23T02:51:56;5.80;92.40
23301;DHT22;11819;51.394;12.340;2022-11-23T02:54:25;5.90;92.40
23301;DHT22;11819;51.394;12.340;2022-11-23T02:56:51;5.90;92.50
23301;DHT22;11819;51.394;12.340;2022-11-23T02:59:18;5.90;92.50
23301;DHT22;11819;51.394;12.340;2022-11-23T03:01:44;5.90;92.40
23301;DHT22;11819;51.394;12.340;2022-11-23T03:04:12;5.90;92.40
23301;DHT22;11819;51.394;12.340;2022-11-23T03:06:37;5.90;92.50
23301;DHT22;11819;51.394;12.340;2022-11-23T03:09:04;5.90;92.40
23301;DHT22;11819;51.394;12.340;2022-11-23T03:11:30;5.90;92.40
23301;DHT22;11819;51.394;12.340;2022-11-23T03:13:56;5.90;92.40
23301;DHT22;11819;51.394;12.340;2022-11-23T03:16:23;5.80;92.40
23301;DHT22;11819;51.394;12.340;2022-11-23T03:18:49;5.80;92.40
23301;DHT22;11819;51.394;12.340;2022-11-23T03:21:16;5.80;92.40
23301;DHT22;11819;51.394;12.340;2022-11-23T03:23:42;5.80;92.50
23301;DHT22;11819;51.394;12.340;2022-11-23T03:26:10;5.80;92.50
23301;DHT22;11819;51.394;12.340;2022-11-23T03:28:41;5.80;92.50
23301;DHT22;11819;51.394;12.340;2022-11-23T03:31:07;5.90;92.60
23301;DHT22;11819;51.394;12.340;2022-11-23T03:33:33;5.80;92.60
23301;DHT22;11819;51.394;12.340;2022-11-23T03:35:59;5.80;92.60
23301;DHT22;11819;51.394;12.340;2022-11-23T03:38:28;5.80;92.60
23301;DHT22;11819;51.394;12.340;2022-11-23T03:40:55;5.80;92.60
23301;DHT22;11819;51.394;12.340;2022-11-23T03:43:23;5.80;92.70
23301;DHT22;11819;51.394;12.340;2022-11-23T03:45:49;5.80;92.70
23301;DHT22;11819;51.394;12.340;2022-11-23T03:48:15;5.90;92.80
23301;DHT22;11819;51.394;12.340;2022-11-23T03:50:41;5.90;93.10
23301;DHT22;11819;51.394;12.340;2022-11-23T03:53:08;5.90;92.80
23301;DHT22;11819;51.394;12.340;2022-11-23T03:55:34;5.90;92.80
23301;DHT22;11819;51.394;12.340;2022-11-23T03:58:01;5.90;92.80
23301;DHT22;11819;51.394;12.340;2022-11-23T04:00:32;5.90;92.80
23301;DHT22;11819;51.394;12.340;2022-11-23T04:02:58;5.90;92.80
23301;DHT22;11819;51.394;12.340;2022-11-23T04:05:42;5.90;92.80
23301;DHT22;11819;51.394;12.340;2022-11-23T04:08:34;5.90;92.70
23301;DHT22;11819;51.394;12.340;2022-11-23T04:11:05;5.90;92.70
23301;DHT22;11819;51.394;12.340;2022-11-23T04:13:36;5.90;92.60
23301;DHT22;11819;51.394;12.340;2022-11-23T04:16:02;6.00;92.60
23301;DHT22;11819;51.394;12.340;2022-11-23T04:18:28;6.00;92.50
23301;DHT22;11819;51.394;12.340;2022-11-23T04:20:54;6.00;92.50
23301;DHT22;11819;51.394;12.340;2022-11-23T04:23:19;5.90;92.50
23301;DHT22;11819;51.394;12.340;2022-11-23T04:25:47;5.90;92.40
23301;DHT22;11819;51.394;12.340;2022-11-23T04:28:14;5.90;92.50
23301;DHT22;11819;51.394;12.340;2022-11-23T04:30:41;5.90;92.50
23301;DHT22;11819;51.394;12.340;2022-11-23T04:33:07;5.80;92.50
23301;DHT22;11819;51.394;12.340;2022-11-23T04:35:34;5.80;92.50
23301;DHT22;11819;51.394;12.340;2022-11-23T04:38:01;5.80;92.60
23301;DHT22;11819;51.394;12.340;2022-11-23T04:40:29;5.80;92.90
23301;DHT22;11819;51.394;12.340;2022-11-23T04:42:59;5.80;92.50
23301;DHT22;11819;51.394;12.340;2022-11-23T04:45:25;5.80;92.50
23301;DHT22;11819;51.394;12.340;2022-11-23T04:47:53;5.80;92.50
23301;DHT22;11819;51.394;12.340;2022-11-23T04:50:21;5.80;92.40
23301;DHT22;11819;51.394;12.340;2022-11-23T04:52:50;5.80;92.30
23301;DHT22;11819;51.394;12.340;2022-11-23T04:55:20;5.80;92.30
23301;DHT22;11819;51.394;12.340;2022-11-23T04:57:55;5.70;92.30
23301;DHT22;11819;51.394;12.340;2022-11-23T05:00:24;5.70;92.30
23301;DHT22;11819;51.394;12.340;2022-11-23T05:02:52;5.70;92.30
23301;DHT22;11819;51.394;12.340;2022-11-23T05:05:22;5.70;92.20
23301;DHT22;11819;51.394;12.340;2022-11-23T05:07:47;5.70;92.20
23301;DHT22;11819;51.394;12.340;2022-11-23T05:10:16;5.70;92.20
23301;DHT22;11819;51.394;12.340;2022-11-23T05:12:41;5.70;92.20
23301;DHT22;11819;51.394;12.340;2022-11-23T05:15:11;5.60;92.20
23301;DHT22;11819;51.394;12.340;2022-11-23T05:17:39;5.60;92.20
23301;DHT22;11819;51.394;12.340;2022-11-23T05:20:10;5.60;92.20
23301;DHT22;11819;51.394;12.340;2022-11-23T05:22:40;5.60;92.20
23301;DHT22;11819;51.394;12.340;2022-11-23T05:25:09;5.70;92.20
23301;DHT22;11819;51.394;12.340;2022-11-23T05:27:37;5.60;92.10
23301;DHT22;11819;51.394;12.340;2022-11-23T05:30:03;5.60;92.10
23301;DHT22;11819;51.394;12.340;2022-11-23T05:32:30;5.60;92.10
23301;DHT22;11819;51.394;12.340;2022-11-23T05:34:58;5.60;92.10
23301;DHT22;11819;51.394;12.340;2022-11-23T05:37:28;5.60;92.10
23301;DHT22;11819;51.394;12.340;2022-11-23T05:40:02;5.60;92.00
23301;DHT22;11819;51.394;12.340;2022-11-23T05:42:29;5.50;92.00
23301;DHT22;11819;51.394;12.340;2022-11-23T05:45:01;5.50;92.00
23301;DHT22;11819;51.394;12.340;2022-11-23T05:47:36;5.50;92.00
23301;DHT22;11819;51.394;12.340;2022-11-23T05:50:06;5.50;92.00
23301;DHT22;11819;51.394;12.340;2022-11-23T05:52:32;5.50;92.00
23301;DHT22;11819;51.394;12.340;2022-11-23T05:54:58;5.50;92.00
23301;DHT22;11819;51.394;12.340;2022-11-23T05:57:24;5.50;91.90
23301;DHT22;11819;51.394;12.340;2022-11-23T05:59:52;5.40;91.90
23301;DHT22;11819;51.394;12.340;2022-11-23T06:02:21;5.40;92.00
23301;DHT22;11819;51.394;12.340;2022-11-23T06:04:52;5.40;92.00
23301;DHT22;11819;51.394;12.340;2022-11-23T06:07:24;5.40;92.00
23301;DHT22;11819;51.394;12.340;2022-11-23T06:10:05;5.40;92.00
23301;DHT22;11819;51.394;12.340;2022-11-23T06:12:33;5.40;92.00
23301;DHT22;11819;51.394;12.340;2022-11-23T06:15:00;5.40;92.00
23301;DHT22;11819;51.394;12.340;2022-11-23T06:17:27;5.40;92.00
23301;DHT22;11819;51.394;12.340;2022-11-23T06:19:59;5.40;91.90
23301;DHT22;11819;51.394;12.340;2022-11-23T06:22:24;5.40;91.90
23301;DHT22;11819;51.394;12.340;2022-11-23T06:24:57;5.30;91.90
23301;DHT22;11819;51.394;12.340;2022-11-23T06:27:54;5.40;92.00
23301;DHT22;11819;51.394;12.340;2022-11-23T06:30:24;5.30;92.00
23301;DHT22;11819;51.394;12.340;2022-11-23T06:32:50;5.40;92.00
23301;DHT22;11819;51.394;12.340;2022-11-23T06:35:17;5.40;92.00
23301;DHT22;11819;51.394;12.340;2022-11-23T06:37:43;5.40;92.00
23301;DHT22;11819;51.394;12.340;2022-11-23T06:40:11;5.40;92.00
23301;DHT22;11819;51.394;12.340;2022-11-23T06:42:38;5.30;92.00
23301;DHT22;11819;51.394;12.340;2022-11-23T06:45:04;5.30;92.00
23301;DHT22;11819;51.394;12.340;2022-11-23T06:47:30;5.30;92.10
23301;DHT22;11819;51.394;12.340;2022-11-23T06:49:58;5.20;92.10
23301;DHT22;11819;51.394;12.340;2022-11-23T06:52:27;5.20;92.20
23301;DHT22;11819;51.394;12.340;2022-11-23T06:54:53;5.20;92.30
23301;DHT22;11819;51.394;12.340;2022-11-23T06:57:20;5.20;92.30
23301;DHT22;11819;51.394;12.340;2022-11-23T06:59:46;5.20;92.20
23301;DHT22;11819;51.394;12.340;2022-11-23T07:02:15;5.20;92.20
23301;DHT22;11819;51.394;12.340;2022-11-23T07:04:41;5.20;92.20
23301;DHT22;11819;51.394;12.340;2022-11-23T07:07:15;5.30;92.40
23301;DHT22;11819;51.394;12.340;2022-11-23T07:09:47;5.30;92.20
23301;DHT22;11819;51.394;12.340;2022-11-23T07:12:28;5.30;92.20
23301;DHT22;11819;51.394;12.340;2022-11-23T07:14:57;5.30;92.10
23301;DHT22;11819;51.394;12.340;2022-11-23T07:17:22;5.30;92.10
23301;DHT22;11819;51.394;12.340;2022-11-23T07:19:48;5.30;92.10
23301;DHT22;11819;51.394;12.340;2022-11-23T07:22:16;5.30;92.10
23301;DHT22;11819;51.394;12.340;2022-11-23T07:24:42;5.30;92.10
23301;DHT22;11819;51.394;12.340;2022-11-23T07:27:07;5.30;92.10
23301;DHT22;11819;51.394;12.340;2022-11-23T07:29:34;5.30;92.10
23301;DHT22;11819;51.394;12.340;2022-11-23T07:31:59;5.30;92.10
23301;DHT22;11819;51.394;12.340;2022-11-23T07:34:28;5.20;92.10
23301;DHT22;11819;51.394;12.340;2022-11-23T07:36:56;5.20;92.10
23301;DHT22;11819;51.394;12.340;2022-11-23T07:39:21;5.20;92.10
23301;DHT22;11819;51.394;12.340;2022-11-23T07:41:49;5.20;92.10
23301;DHT22;11819;51.394;12.340;2022-11-23T07:44:21;5.20;92.10
23301;DHT22;11819;51.394;12.340;2022-11-23T07:46:48;5.20;92.20
23301;DHT22;11819;51.394;12.340;2022-11-23T07:49:16;5.30;92.10
23301;DHT22;11819;51.394;12.340;2022-11-23T07:51:42;5.30;92.20
23301;DHT22;11819;51.394;12.340;2022-11-23T07:54:08;5.30;92.20
23301;DHT22;11819;51.394;12.340;2022-11-23T07:56:33;5.40;92.30
23301;DHT22;11819;51.394;12.340;2022-11-23T07:58:59;5.40;92.20
23301;DHT22;11819;51.394;12.340;2022-11-23T08:01:24;5.40;92.20
23301;DHT22;11819;51.394;12.340;2022-11-23T08:03:51;5.50;92.20
23301;DHT22;11819;51.394;12.340;2022-11-23T08:06:17;5.50;92.20
23301;DHT22;11819;51.394;12.340;2022-11-23T08:08:43;5.60;92.20
23301;DHT22;11819;51.394;12.340;2022-11-23T08:11:09;5.60;92.20
23301;DHT22;11819;51.394;12.340;2022-11-23T08:13:41;5.60;92.20
23301;DHT22;11819;51.394;12.340;2022-11-23T08:16:07;5.70;92.20
23301;DHT22;11819;51.394;12.340;2022-11-23T08:18:33;5.70;92.10
23301;DHT22;11819;51.394;12.340;2022-11-23T08:20:59;5.70;92.10
23301;DHT22;11819;51.394;12.340;2022-11-23T08:23:27;5.80;92.20
23301;DHT22;11819;51.394;12.340;2022-11-23T08:25:53;5.80;92.20
23301;DHT22;11819;51.394;12.340;2022-11-23T08:28:19;5.80;92.20
23301;DHT22;11819;51.394;12.340;2022-11-23T08:30:47;5.80;92.20
23301;DHT22;11819;51.394;12.340;2022-11-23T08:33:13;5.90;92.20
23301;DHT22;11819;51.394;12.340;2022-11-23T08:35:40;5.90;92.20
23301;DHT22;11819;51.394;12.340;2022-11-23T08:38:08;5.90;92.20
23301;DHT22;11819;51.394;12.340;2022-11-23T08:40:35;5.90;92.30
23301;DHT22;11819;51.394;12.340;2022-11-23T08:43:01;5.90;92.30
23301;DHT22;11819;51.394;12.340;2022-11-23T08:45:26;5.90;92.30
23301;DHT22;11819;51.394;12.340;2022-11-23T08:47:53;6.00;92.40
23301;DHT22;11819;51.394;12.340;2022-11-23T08:50:20;6.00;92.40
23301;DHT22;11819;51.394;12.340;2022-11-23T08:52:47;6.00;92.50
23301;DHT22;11819;51.394;12.340;2022-11-23T08:55:13;6.00;92.60
23301;DHT22;11819;51.394;12.340;2022-11-23T08:57:38;6.00;92.70
23301;DHT22;11819;51.394;12.340;2022-11-23T09:00:05;6.00;92.70
23301;DHT22;11819;51.394;12.340;2022-11-23T09:02:32;6.00;92.70
23301;DHT22;11819;51.394;12.340;2022-11-23T09:05:01;6.10;92.80
23301;DHT22;11819;51.394;12.340;2022-11-23T09:07:26;6.10;92.80
23301;DHT22;11819;51.394;12.340;2022-11-23T09:09:52;6.10;93.10
23301;DHT22;11819;51.394;12.340;2022-11-23T09:12:17;6.20;92.80
23301;DHT22;11819;51.394;12.340;2022-11-23T09:14:43;6.20;92.80
23301;DHT22;11819;51.394;12.340;2022-11-23T09:17:09;6.20;92.90
23301;DHT22;11819;51.394;12.340;2022-11-23T09:19:34;6.30;92.90
23301;DHT22;11819;51.394;12.340;2022-11-23T09:22:00;6.30;92.90
23301;DHT22;11819;51.394;12.340;2022-11-23T09:24:26;6.30;92.80
23301;DHT22;11819;51.394;12.340;2022-11-23T09:26:52;6.30;92.90
23301;DHT22;11819;51.394;12.340;2022-11-23T09:29:18;6.40;92.90
23301;DHT22;11819;51.394;12.340;2022-11-23T09:31:43;6.40;92.90
23301;DHT22;11819;51.394;12.340;2022-11-23T09:34:11;6.50;92.90
23301;DHT22;11819;51.394;12.340;2022-11-23T09:36:38;6.50;93.00
23301;DHT22;11819;51.394;12.340;2022-11-23T09:39:05;6.60;93.00
23301;DHT22;11819;51.394;12.340;2022-11-23T09:52:43;6.90;93.20
23301;DHT22;11819;51.394;12.340;2022-11-23T09:55:33;6.90;93.10
23301;DHT22;11819;51.394;12.340;2022-11-23T09:58:03;7.00;93.10
23301;DHT22;11819;51.394;12.340;2022-11-23T10:00:47;7.10;93.10
23301;DHT22;11819;51.394;12.340;2022-11-23T10:03:16;7.10;93.10
23301;DHT22;11819;51.394;12.340;2022-11-23T10:05:49;7.10;93.10
23301;DHT22;11819;51.394;12.340;2022-11-23T10:11:04;7.20;93.10
23301;DHT22;11819;51.394;12.340;2022-11-23T10:13:42;7.20;93.40
23301;DHT22;11819;51.394;12.340;2022-11-23T10:16:46;7.30;93.10
23301;DHT22;11819;51.394;12.340;2022-11-23T10:22:22;7.40;93.00
23301;DHT22;11819;51.394;12.340;2022-11-23T10:24:52;7.40;92.90
23301;DHT22;11819;51.394;12.340;2022-11-23T10:27:20;7.50;93.20
23301;DHT22;11819;51.394;12.340;2022-11-23T10:29:47;7.50;92.80
23301;DHT22;11819;51.394;12.340;2022-11-23T10:32:37;7.50;92.80
23301;DHT22;11819;51.394;12.340;2022-11-23T10:35:17;7.60;92.80
23301;DHT22;11819;51.394;12.340;2022-11-23T10:37:45;7.60;92.70
23301;DHT22;11819;51.394;12.340;2022-11-23T10:40:26;7.70;92.70
23301;DHT22;11819;51.394;12.340;2022-11-23T10:42:56;7.80;92.60
23301;DHT22;11819;51.394;12.340;2022-11-23T10:45:25;7.80;92.50
23301;DHT22;11819;51.394;12.340;2022-11-23T10:47:56;7.80;92.40
23301;DHT22;11819;51.394;12.340;2022-11-23T10:50:32;7.80;92.30
23301;DHT22;11819;51.394;12.340;2022-11-23T10:58:33;7.90;92.10
23301;DHT22;11819;51.394;12.340;2022-11-23T11:01:11;7.90;92.10
23301;DHT22;11819;51.394;12.340;2022-11-23T11:03:37;7.90;92.00
23301;DHT22;11819;51.394;12.340;2022-11-23T11:06:03;7.90;92.00
23301;DHT22;11819;51.394;12.340;2022-11-23T11:08:34;7.90;91.90
23301;DHT22;11819;51.394;12.340;2022-11-23T11:13:43;7.90;91.70
23301;DHT22;11819;51.394;12.340;2022-11-23T11:16:31;7.90;91.60
23301;DHT22;11819;51.394;12.340;2022-11-23T11:18:57;8.00;91.60
23301;DHT22;11819;51.394;12.340;2022-11-23T11:21:33;7.90;91.60
23301;DHT22;11819;51.394;12.340;2022-11-23T11:24:02;8.00;91.60
23301;DHT22;11819;51.394;12.340;2022-11-23T11:26:32;8.00;91.60
23301;DHT22;11819;51.394;12.340;2022-11-23T11:29:01;8.10;91.60
23301;DHT22;11819;51.394;12.340;2022-11-23T11:31:43;8.10;91.60
23301;DHT22;11819;51.394;12.340;2022-11-23T11:37:37;8.20;91.50
23301;DHT22;11819;51.394;12.340;2022-11-23T11:40:28;8.20;91.40
23301;DHT22;11819;51.394;12.340;2022-11-23T11:45:31;8.30;91.30
23301;DHT22;11819;51.394;12.340;2022-11-23T11:50:55;8.40;91.20
23301;DHT22;11819;51.394;12.340;2022-11-23T11:53:28;8.40;91.10
23301;DHT22;11819;51.394;12.340;2022-11-23T11:56:06;8.40;91.00
23301;DHT22;11819;51.394;12.340;2022-11-23T11:58:37;8.40;91.00
23301;DHT22;11819;51.394;12.340;2022-11-23T12:01:26;8.30;91.00
23301;DHT22;11819;51.394;12.340;2022-11-23T12:04:22;8.40;91.00
23301;DHT22;11819;51.394;12.340;2022-11-23T12:06:53;8.40;91.00
23301;DHT22;11819;51.394;12.340;2022-11-23T12:09:29;8.40;91.00
23301;DHT22;11819;51.394;12.340;2022-11-23T12:11:57;8.40;91.00
23301;DHT22;11819;51.394;12.340;2022-11-23T12:14:23;8.40;90.90
23301;DHT22;11819;51.394;12.340;2022-11-23T12:20:21;8.50;91.00
23301;DHT22;11819;51.394;12.340;2022-11-23T12:25:26;8.60;91.10
23301;DHT22;11819;51.394;12.340;2022-11-23T12:34:03;8.70;90.90
23301;DHT22;11819;51.394;12.340;2022-11-23T12:36:59;8.70;91.20
23301;DHT22;11819;51.394;12.340;2022-11-23T12:42:42;8.80;90.80
23301;DHT22;11819;51.394;12.340;2022-11-23T12:48:42;8.80;90.70
23301;DHT22;11819;51.394;12.340;2022-11-23T12:51:26;8.80;90.70
23301;DHT22;11819;51.394;12.340;2022-11-23T12:56:54;8.90;90.70
23301;DHT22;11819;51.394;12.340;2022-11-23T13:10:37;9.10;90.60
23301;DHT22;11819;51.394;12.340;2022-11-23T13:16:18;9.30;90.80
23301;DHT22;11819;51.394;12.340;2022-11-23T13:19:13;9.40;90.80
23301;DHT22;11819;51.394;12.340;2022-11-23T13:21:45;9.50;90.80
23301;DHT22;11819;51.394;12.340;2022-11-23T13:24:29;9.60;90.70
23301;DHT22;11819;51.394;12.340;2022-11-23T13:30:07;9.70;90.70
23301;DHT22;11819;51.394;12.340;2022-11-23T13:40:44;9.90;90.20
23301;DHT22;11819;51.394;12.340;2022-11-23T13:43:28;9.90;90.10
23301;DHT22;11819;51.394;12.340;2022-11-23T13:46:22;9.80;90.00
23301;DHT22;11819;51.394;12.340;2022-11-23T13:48:52;9.80;89.90
23301;DHT22;11819;51.394;12.340;2022-11-23T13:51:27;9.90;89.90
23301;DHT22;11819;51.394;12.340;2022-11-23T13:57:01;9.90;89.70
23301;DHT22;11819;51.394;12.340;2022-11-23T13:59:32;9.80;89.40
23301;DHT22;11819;51.394;12.340;2022-11-23T14:04:39;9.70;89.10
23301;DHT22;11819;51.394;12.340;2022-11-23T14:09:56;9.60;88.80
23301;DHT22;11819;51.394;12.340;2022-11-23T14:15:26;9.50;88.60
23301;DHT22;11819;51.394;12.340;2022-11-23T14:29:16;9.30;88.50
23301;DHT22;11819;51.394;12.340;2022-11-23T14:42:29;9.10;88.50
23301;DHT22;11819;51.394;12.340;2022-11-23T14:45:00;9.10;88.40
23301;DHT22;11819;51.394;12.340;2022-11-23T14:47:28;9.10;88.50
23301;DHT22;11819;51.394;12.340;2022-11-23T14:49:55;9.10;88.40
23301;DHT22;11819;51.394;12.340;2022-11-23T14:52:32;9.10;88.40
23301;DHT22;11819;51.394;12.340;2022-11-23T14:55:01;9.10;88.30
23301;DHT22;11819;51.394;12.340;2022-11-23T14:57:41;9.00;88.20
23301;DHT22;11819;51.394;12.340;2022-11-23T15:00:36;9.00;88.20
23301;DHT22;11819;51.394;12.340;2022-11-23T15:03:16;8.90;88.10
23301;DHT22;11819;51.394;12.340;2022-11-23T15:05:45;8.80;88.10
23301;DHT22;11819;51.394;12.340;2022-11-23T15:08:42;8.70;88.20
23301;DHT22;11819;51.394;12.340;2022-11-23T15:11:13;8.60;89.00
23301;DHT22;11819;51.394;12.340;2022-11-23T15:13:52;8.50;88.20
23301;DHT22;11819;51.394;12.340;2022-11-23T15:16:20;8.40;88.30
23301;DHT22;11819;51.394;12.340;2022-11-23T15:18:47;8.40;88.50
23301;DHT22;11819;51.394;12.340;2022-11-23T15:21:22;8.30;88.50
23301;DHT22;11819;51.394;12.340;2022-11-23T15:23:53;8.30;88.50
23301;DHT22;11819;51.394;12.340;2022-11-23T15:26:22;8.20;88.60
23301;DHT22;11819;51.394;12.340;2022-11-23T15:28:48;8.20;88.60
23301;DHT22;11819;51.394;12.340;2022-11-23T15:33:59;8.10;88.70
23301;DHT22;11819;51.394;12.340;2022-11-23T15:36:29;8.10;88.70
23301;DHT22;11819;51.394;12.340;2022-11-23T15:38:57;8.00;88.70
23301;DHT22;11819;51.394;12.340;2022-11-23T15:41:26;8.00;88.90
23301;DHT22;11819;51.394;12.340;2022-11-23T15:43:59;8.00;89.00
23301;DHT22;11819;51.394;12.340;2022-11-23T15:46:36;8.00;89.00
23301;DHT22;11819;51.394;12.340;2022-11-23T15:49:10;8.00;89.00
23301;DHT22;11819;51.394;12.340;2022-11-23T15:51:40;8.00;89.00
23301;DHT22;11819;51.394;12.340;2022-11-23T15:54:25;8.00;89.00
23301;DHT22;11819;51.394;12.340;2022-11-23T15:56:54;8.00;89.00
23301;DHT22;11819;51.394;12.340;2022-11-23T15:59:29;7.90;89.00
23301;DHT22;11819;51.394;12.340;2022-11-23T16:01:59;7.90;89.00
23301;DHT22;11819;51.394;12.340;2022-11-23T16:04:38;7.80;89.00
23301;DHT22;11819;51.394;12.340;2022-11-23T16:09:45;7.70;89.00
23301;DHT22;11819;51.394;12.340;2022-11-23T16:12:27;7.70;89.10
23301;DHT22;11819;51.394;12.340;2022-11-23T16:14:56;7.60;88.50
23301;DHT22;11819;51.394;12.340;2022-11-23T16:17:26;7.60;89.20
23301;DHT22;11819;51.394;12.340;2022-11-23T16:19:54;7.60;89.20
23301;DHT22;11819;51.394;12.340;2022-11-23T16:22:30;7.50;89.20
23301;DHT22;11819;51.394;12.340;2022-11-23T16:25:07;7.50;89.20
23301;DHT22;11819;51.394;12.340;2022-11-23T16:27:34;7.50;89.40
23301;DHT22;11819;51.394;12.340;2022-11-23T16:30:00;7.40;89.30
23301;DHT22;11819;51.394;12.340;2022-11-23T16:32:30;7.40;89.30
23301;DHT22;11819;51.394;12.340;2022-11-23T16:35:28;7.40;89.40
23301;DHT22;11819;51.394;12.340;2022-11-23T16:37:54;7.30;89.40
23301;DHT22;11819;51.394;12.340;2022-11-23T16:40:19;7.30;89.50
23301;DHT22;11819;51.394;12.340;2022-11-23T16:42:50;7.30;89.50
23301;DHT22;11819;51.394;12.340;2022-11-23T16:45:16;7.20;89.40
23301;DHT22;11819;51.394;12.340;2022-11-23T16:47:59;7.20;89.50
23301;DHT22;11819;51.394;12.340;2022-11-23T16:50:27;7.20;89.50
23301;DHT22;11819;51.394;12.340;2022-11-23T16:52:54;7.10;89.50
23301;DHT22;11819;51.394;12.340;2022-11-23T16:55:21;7.10;89.60
23301;DHT22;11819;51.394;12.340;2022-11-23T16:57:47;7.00;89.60
23301;DHT22;11819;51.394;12.340;2022-11-23T17:00:20;7.00;89.60
23301;DHT22;11819;51.394;12.340;2022-11-23T17:02:46;7.00;89.70
23301;DHT22;11819;51.394;12.340;2022-11-23T17:05:17;6.90;89.60
23301;DHT22;11819;51.394;12.340;2022-11-23T17:07:44;6.90;89.70
23301;DHT22;11819;51.394;12.340;2022-11-23T17:10:10;6.80;89.60
23301;DHT22;11819;51.394;12.340;2022-11-23T17:12:37;6.80;89.60
23301;DHT22;11819;51.394;12.340;2022-11-23T17:15:04;6.80;89.50
23301;DHT22;11819;51.394;12.340;2022-11-23T17:17:30;6.70;89.60
23301;DHT22;11819;51.394;12.340;2022-11-23T17:19:56;6.60;89.50
23301;DHT22;11819;51.394;12.340;2022-11-23T17:22:22;6.60;90.20
23301;DHT22;11819;51.394;12.340;2022-11-23T17:24:49;6.60;89.70
23301;DHT22;11819;51.394;12.340;2022-11-23T17:27:23;6.50;89.70
23301;DHT22;11819;51.394;12.340;2022-11-23T17:30:00;6.50;89.70
23301;DHT22;11819;51.394;12.340;2022-11-23T17:32:26;6.50;89.70
23301;DHT22;11819;51.394;12.340;2022-11-23T17:34:53;6.50;90.00
23301;DHT22;11819;51.394;12.340;2022-11-23T17:37:20;6.60;90.10
23301;DHT22;11819;51.394;12.340;2022-11-23T17:39:47;6.60;90.20
23301;DHT22;11819;51.394;12.340;2022-11-23T17:42:14;6.70;90.20
23301;DHT22;11819;51.394;12.340;2022-11-23T17:44:41;6.80;90.20
23301;DHT22;11819;51.394;12.340;2022-11-23T17:49:46;6.90;90.10
23301;DHT22;11819;51.394;12.340;2022-11-23T17:52:12;6.90;90.00
23301;DHT22;11819;51.394;12.340;2022-11-23T17:54:38;6.90;90.00